Portada
METAR-TAF:

METAR-TAF

Aeroports :

Yap, Micronèsia

latitud: 09-29N, longitud: 138-05E, altitud: 28 m

Observació

L'informe es va fer fa 52 minuts, a les 07:50 UTC
Vent 4 kt amb direcció variable
Temperatura 29°C
Humitat 74%
Pressió 1009 hPa
Visibilitat: 19.3 km
Escasses núvols a una alçada de 1700 ft
Núvols disperses a una alçada de 30000 ft

METAR: PTYA 280750Z VRB04KT 12SM FEW017 SCT300 29/24 A2979 RMK SLP088 T02930242

Hora: 18:42 (08:42 UTC)

Pronòstic

L'informe es va fer fa 3 hores i 12 minuts, a les 05:30 UTC
Pronòstic vàlid del 28 a les 06 UTC al 29 a les 06 UTC
Vent 5 kt amb direcció variable
Visibilitat: 10 km
Núvols disperses a una alçada de 2000 ft
Núvols disperses a una alçada de 5000 ft

TAF: PTYA 280530Z 2806/2906 VRB05KT P6SM SCT020 SCT050

Observacions i pronòstics meteorològics de més de 4000 aeroports (METAR i TAF).

Les estacions disponibles són els punts grocs i vermells al mapa.

Posi el ratolí al punt desitjat per veure el nom de l'estació.

Feu clic per veure les observacions i els pronòstics meteorològics.

Per canviar el mapa: feu clic els botons verds amb una creu de color negre per apropar; al botó verd amb un guió per allunyar la imatge; o en les fletxes verdes per a mapes adjacents.


METAR-TAF: